Time;durP1;ratioP1;P1;durP2;ratioP2;P2;SDS_P1;SDS_P2;PMS_P1;PMS_P2;Temp;Humidity;BMP_temperature;BMP_pressure;BME280_temperature;BME280_humidity;BME280_pressure;Samples;Min_cycle;Max_cycle;Signal;HPM_P1;HPM_P2
2022/05/25 00:00:08;;;;;;;5.80;3.80;;;12.10;99.90;;;;;;5069907;28;20075;-78
2022/05/25 00:02:33;;;;;;;5.93;3.22;;;12.00;99.90;;;;;;5070700;28;20024;-78
2022/05/25 00:04:59;;;;;;;5.82;3.65;;;12.00;99.90;;;;;;5071889;28;20501;-78
2022/05/25 00:07:24;;;;;;;7.00;3.60;;;12.00;99.90;;;;;;5070509;28;20031;-78
2022/05/25 00:09:51;;;;;;;7.85;4.03;;;12.00;99.90;;;;;;5069854;28;20033;-78
2022/05/25 00:12:17;;;;;;;5.38;3.60;;;12.10;99.90;;;;;;5070306;28;20028;-78
2022/05/25 00:14:43;;;;;;;4.97;3.22;;;12.10;99.90;;;;;;5071699;28;20466;-78
2022/05/25 00:17:09;;;;;;;9.07;3.72;;;12.10;99.90;;;;;;5071657;28;20024;-78
2022/05/25 00:22:18;;;;;;;7.35;3.63;;;12.00;99.90;;;;;;5072201;28;20114;-78
2022/05/25 00:24:44;;;;;;;4.78;3.63;;;12.00;99.90;;;;;;5070912;28;20036;-78
2022/05/25 00:27:09;;;;;;;5.22;3.47;;;12.00;99.90;;;;;;5070307;28;20032;-78
2022/05/25 00:29:36;;;;;;;6.53;3.47;;;11.90;99.90;;;;;;5069714;28;20024;-78
2022/05/25 00:32:03;;;;;;;4.95;3.67;;;11.90;99.90;;;;;;5070170;28;20029;-77
2022/05/25 00:34:29;;;;;;;7.25;4.47;;;11.90;99.90;;;;;;5071770;28;20020;-78
2022/05/25 00:36:54;;;;;;;6.13;3.33;;;11.90;99.90;;;;;;5070184;28;20024;-78
2022/05/25 00:39:23;;;;;;;4.05;3.40;;;11.80;99.90;;;;;;5071504;28;20107;-78
2022/05/25 00:41:50;;;;;;;6.05;4.20;;;11.80;99.90;;;;;;5070931;28;20032;-78
2022/05/25 00:44:16;;;;;;;5.22;3.85;;;11.80;99.90;;;;;;5071579;28;20039;-77
2022/05/25 00:46:41;;;;;;;5.47;3.20;;;11.80;99.90;;;;;;5071391;28;20477;-78
2022/05/25 00:49:27;;;;;;;7.60;3.55;;;11.80;99.90;;;;;;5070183;28;20033;-78
2022/05/25 00:51:56;;;;;;;3.08;2.53;;;11.80;99.90;;;;;;5071631;28;20130;-78
2022/05/25 00:54:33;;;;;;;4.65;2.75;;;11.90;99.90;;;;;;5074436;28;20048;-78
2022/05/25 00:57:03;;;;;;;4.80;2.88;;;11.90;99.90;;;;;;5074352;28;20393;-78
2022/05/25 00:59:33;;;;;;;3.72;2.72;;;11.90;99.90;;;;;;5075535;28;20024;-78
2022/05/25 01:01:58;;;;;;;4.60;2.72;;;12.00;99.90;;;;;;5074028;28;20108;-78
2022/05/25 01:04:25;;;;;;;3.33;2.50;;;12.00;99.90;;;;;;5075288;28;20107;-78
2022/05/25 01:07:21;;;;;;;3.78;2.53;;;12.00;99.90;;;;;;5075425;28;20048;-78
2022/05/25 01:09:52;;;;;;;5.13;2.78;;;12.00;99.90;;;;;;5071013;28;20070;-78
2022/05/25 01:12:43;;;;;;;3.47;2.88;;;12.10;99.90;;;;;;5075001;28;20059;-78
2022/05/25 01:15:29;;;;;;;4.13;2.97;;;12.00;99.90;;;;;;5075048;28;20027;-78
2022/05/25 01:18:19;;;;;;;7.03;3.63;;;12.10;99.90;;;;;;5074898;28;20031;-78
2022/05/25 01:20:55;;;;;;;4.20;3.00;;;12.00;99.90;;;;;;5074348;28;20016;-78
2022/05/25 01:23:49;;;;;;;5.47;3.47;;;12.00;99.90;;;;;;5073781;28;20401;-78
2022/05/25 01:26:34;;;;;;;6.90;3.00;;;12.00;99.90;;;;;;5075172;28;20520;-78
2022/05/25 01:29:02;;;;;;;4.78;2.70;;;11.90;99.90;;;;;;5073666;28;20021;-78
2022/05/25 01:31:52;;;;;;;4.45;3.05;;;11.90;99.90;;;;;;5072896;28;20485;-78
2022/05/25 01:34:32;;;;;;;4.78;3.55;;;11.90;99.90;;;;;;5074576;28;20036;-78
2022/05/25 01:37:16;;;;;;;3.58;2.83;;;11.90;99.90;;;;;;5073290;28;20067;-79
2022/05/25 01:39:51;;;;;;;6.00;3.17;;;11.80;99.90;;;;;;5072914;28;20070;-78
2022/05/25 01:42:24;;;;;;;5.72;3.22;;;11.80;99.90;;;;;;5074524;28;20024;-82
2022/05/25 01:44:57;;;;;;;8.90;3.38;;;11.70;99.90;;;;;;5073293;28;20074;-83
2022/05/25 01:47:26;;;;;;;4.28;2.83;;;11.70;99.90;;;;;;5075048;28;20028;-83
2022/05/25 01:50:02;;;;;;;4.95;3.00;;;11.70;99.90;;;;;;5072379;28;20029;-83
2022/05/25 01:52:34;;;;;;;3.65;2.75;;;11.70;99.90;;;;;;5072816;28;20059;-82
2022/05/25 01:55:06;;;;;;;6.88;2.28;;;11.80;99.90;;;;;;5074203;28;20051;-83
2022/05/25 01:57:35;;;;;;;4.60;2.92;;;11.70;99.90;;;;;;5074495;28;20466;-83
2022/05/25 02:00:02;;;;;;;6.15;3.65;;;11.70;99.90;;;;;;5073651;28;20035;-83
2022/05/25 02:05:17;;;;;;;5.03;2.67;;;11.70;99.90;;;;;;5074071;28;20028;-83
2022/05/25 02:08:21;;;;;;;4.32;2.92;;;11.70;99.90;;;;;;5074456;28;20028;-83
2022/05/25 02:11:01;;;;;;;4.90;2.42;;;11.70;99.90;;;;;;5073381;28;20107;-82
2022/05/25 02:13:36;;;;;;;5.05;2.45;;;11.70;99.90;;;;;;5072523;28;20088;-83
2022/05/25 02:16:11;;;;;;;3.08;2.17;;;11.70;99.90;;;;;;5073935;28;20393;-83
2022/05/25 02:18:42;;;;;;;5.55;2.60;;;11.70;99.90;;;;;;5072386;28;20455;-83
2022/05/25 02:21:16;;;;;;;4.55;2.63;;;11.70;99.90;;;;;;5071733;28;20248;-83
2022/05/25 02:23:47;;;;;;;5.35;3.08;;;11.60;99.90;;;;;;5073633;28;20024;-83
2022/05/25 02:26:17;;;;;;;3.25;2.67;;;11.60;99.90;;;;;;5073593;28;20024;-83
2022/05/25 02:28:53;;;;;;;4.60;2.78;;;11.60;99.90;;;;;;5073690;28;20029;-83
2022/05/25 02:31:23;;;;;;;4.57;2.65;;;11.50;99.90;;;;;;5072866;28;20094;-82
2022/05/25 02:33:56;;;;;;;6.30;3.15;;;11.50;99.90;;;;;;5072043;28;20477;-83
2022/05/25 02:36:23;;;;;;;2.80;2.42;;;11.60;99.90;;;;;;5073432;28;20482;-82
2022/05/25 02:38:48;;;;;;;4.15;2.75;;;11.50;99.90;;;;;;5073546;28;20021;-83
2022/05/25 02:41:30;;;;;;;9.88;3.03;;;11.50;99.90;;;;;;5072668;28;20548;-83
2022/05/25 02:43:56;;;;;;;5.60;2.72;;;11.50;99.90;;;;;;5073516;28;20056;-83
2022/05/25 02:46:22;;;;;;;6.72;3.20;;;11.40;99.90;;;;;;5072002;28;20402;-83
2022/05/25 02:48:47;;;;;;;5.28;3.22;;;11.40;99.90;;;;;;5071923;28;20024;-83
2022/05/25 02:51:13;;;;;;;6.55;3.30;;;11.40;99.90;;;;;;5072853;28;20064;-83
2022/05/25 02:53:41;;;;;;;3.17;2.42;;;11.40;99.90;;;;;;5073047;28;20469;-82
2022/05/25 02:56:07;;;;;;;4.15;2.97;;;11.50;99.90;;;;;;5073849;28;20024;-82
2022/05/25 02:58:32;;;;;;;4.00;2.80;;;11.50;99.90;;;;;;5073213;28;20020;-83
2022/05/25 03:00:59;;;;;;;3.15;2.70;;;11.50;99.90;;;;;;5071351;28;20052;-81
2022/05/25 03:03:25;;;;;;;3.78;2.40;;;11.50;99.90;;;;;;5072088;28;20020;-81
2022/05/25 03:05:51;;;;;;;4.40;2.83;;;11.60;99.90;;;;;;5072385;28;20032;-81
2022/05/25 03:08:17;;;;;;;5.15;2.30;;;11.60;99.90;;;;;;5073968;28;20029;-83
2022/05/25 03:10:43;;;;;;;6.00;2.70;;;11.60;99.90;;;;;;5071808;28;20031;-83
2022/05/25 03:13:10;;;;;;;5.75;3.03;;;11.60;99.90;;;;;;5072181;28;20064;-83
2022/05/25 03:15:36;;;;;;;7.53;2.95;;;11.60;99.90;;;;;;5072854;28;20020;-83
2022/05/25 03:18:02;;;;;;;4.15;3.05;;;11.50;99.90;;;;;;5073280;28;20026;-83
2022/05/25 03:20:29;;;;;;;9.73;3.20;;;11.60;99.90;;;;;;5071396;28;20020;-83
2022/05/25 03:22:55;;;;;;;6.55;2.58;;;11.60;99.90;;;;;;5073139;28;20040;-82
2022/05/25 03:25:21;;;;;;;7.25;2.50;;;11.60;99.90;;;;;;5072070;28;20028;-83
2022/05/25 03:27:46;;;;;;;5.68;3.08;;;11.50;99.90;;;;;;5073177;28;20027;-80
2022/05/25 03:30:15;;;;;;;3.70;2.53;;;11.50;99.90;;;;;;5071224;28;20028;-80
2022/05/25 03:32:41;;;;;;;2.90;2.55;;;11.60;99.90;;;;;;5071524;28;20139;-80
2022/05/25 03:35:09;;;;;;;3.38;2.17;;;11.60;99.90;;;;;;5071727;28;20020;-81
2022/05/25 03:37:35;;;;;;;5.45;3.40;;;11.60;99.90;;;;;;5071374;28;20021;-80
2022/05/25 03:40:02;;;;;;;4.05;2.47;;;11.60;99.90;;;;;;5071258;28;20021;-80
2022/05/25 03:42:27;;;;;;;4.20;2.60;;;11.60;99.90;;;;;;5072803;28;20112;-81
2022/05/25 03:44:53;;;;;;;6.40;3.10;;;11.60;99.90;;;;;;5073013;28;20083;-80
2022/05/25 03:47:18;;;;;;;3.35;2.25;;;11.70;99.90;;;;;;5072903;28;20529;-84
2022/05/25 03:49:44;;;;;;;4.93;2.63;;;11.70;99.90;;;;;;5072416;28;20070;-82
2022/05/25 03:52:10;;;;;;;6.18;3.50;;;11.70;99.90;;;;;;5072664;28;20218;-82
2022/05/25 03:54:37;;;;;;;4.82;2.67;;;11.70;99.90;;;;;;5071515;28;20032;-82
2022/05/25 03:57:04;;;;;;;5.18;2.70;;;11.70;99.90;;;;;;5071273;28;20048;-82
2022/05/25 03:59:30;;;;;;;5.18;2.95;;;11.70;99.90;;;;;;5072504;28;20024;-82
2022/05/25 04:01:55;;;;;;;4.50;3.00;;;11.80;99.90;;;;;;5071357;28;20111;-82
2022/05/25 04:04:21;;;;;;;7.03;3.40;;;11.80;99.90;;;;;;5071427;28;20028;-82
2022/05/25 04:06:47;;;;;;;4.28;2.97;;;11.80;99.90;;;;;;5071133;28;20026;-82
2022/05/25 04:09:13;;;;;;;8.07;3.00;;;11.70;99.90;;;;;;5072439;28;20428;-82
2022/05/25 04:11:41;;;;;;;4.82;3.55;;;11.70;99.90;;;;;;5071887;28;20089;-82
2022/05/25 04:14:07;;;;;;;7.60;3.92;;;11.60;99.90;;;;;;5072683;28;20025;-82
2022/05/25 04:16:32;;;;;;;3.85;3.10;;;11.50;99.90;;;;;;5072425;28;20024;-82
2022/05/25 04:18:58;;;;;;;5.72;3.10;;;11.50;99.90;;;;;;5070996;28;20021;-82
2022/05/25 04:21:24;;;;;;;3.53;2.50;;;11.60;99.90;;;;;;5070145;28;20024;-81
2022/05/25 04:23:52;;;;;;;6.28;2.95;;;11.60;99.90;;;;;;5070797;28;20021;-82
2022/05/25 04:26:19;;;;;;;5.45;3.33;;;11.60;99.90;;;;;;5070297;28;20507;-81
2022/05/25 04:28:44;;;;;;;5.97;2.97;;;11.60;99.90;;;;;;5072127;28;20029;-82
2022/05/25 04:31:10;;;;;;;7.63;3.50;;;11.70;99.90;;;;;;5071194;28;20033;-81
2022/05/25 04:33:36;;;;;;;3.58;2.63;;;11.70;99.90;;;;;;5072641;28;20028;-82
2022/05/25 04:36:03;;;;;;;4.72;2.55;;;11.70;99.90;;;;;;5072066;28;20024;-82
2022/05/25 04:38:28;;;;;;;5.22;2.22;;;11.80;99.90;;;;;;5072046;28;20523;-82
2022/05/25 04:40:54;;;;;;;2.72;2.17;;;11.80;99.90;;;;;;5071589;28;20020;-82
2022/05/25 04:43:22;;;;;;;5.10;2.63;;;11.90;99.90;;;;;;5070803;28;20034;-82
2022/05/25 04:45:49;;;;;;;7.68;3.40;;;11.90;99.90;;;;;;5072378;28;20115;-82
2022/05/25 04:48:19;;;;;;;5.03;2.78;;;12.00;99.90;;;;;;5079014;28;20120;-82
2022/05/25 04:50:45;;;;;;;5.35;2.80;;;12.00;99.90;;;;;;5082713;28;20472;-82
2022/05/25 04:53:14;;;;;;;7.13;3.20;;;12.00;99.90;;;;;;5079624;28;20024;-82
2022/05/25 04:58:33;;;;;;;5.95;3.40;;;12.10;99.90;;;;;;5079302;28;20027;-82
2022/05/25 05:01:03;;;;;;;4.10;3.35;;;12.10;99.90;;;;;;5073366;28;20088;-82
2022/05/25 05:03:29;;;;;;;5.32;3.17;;;12.10;99.90;;;;;;5073959;28;20031;-82
2022/05/25 05:05:56;;;;;;;5.72;3.30;;;12.20;99.90;;;;;;5073562;28;20029;-82
2022/05/25 05:08:21;;;;;;;6.03;3.10;;;12.20;99.90;;;;;;5075045;28;20029;-82
2022/05/25 05:10:48;;;;;;;4.95;3.50;;;12.20;99.90;;;;;;5074068;28;20123;-83
2022/05/25 05:13:14;;;;;;;7.55;3.65;;;12.30;99.90;;;;;;5075314;28;20174;-82
2022/05/25 05:15:43;;;;;;;3.72;2.95;;;12.30;99.90;;;;;;5074077;28;20083;-82
2022/05/25 05:18:09;;;;;;;7.60;3.78;;;12.40;99.90;;;;;;5073177;28;20021;-82
2022/05/25 05:20:35;;;;;;;6.80;3.63;;;12.50;99.90;;;;;;5074602;28;20373;-82
2022/05/25 05:23:02;;;;;;;4.10;3.22;;;12.50;99.90;;;;;;5073964;28;20032;-82
2022/05/25 05:25:27;;;;;;;5.20;3.53;;;12.60;99.90;;;;;;5073302;28;20029;-82
2022/05/25 05:27:53;;;;;;;4.50;3.25;;;12.60;99.90;;;;;;5073174;28;20378;-81
2022/05/25 05:30:21;;;;;;;9.40;3.70;;;12.70;99.90;;;;;;5072047;28;20052;-82
2022/05/25 05:32:47;;;;;;;8.38;3.60;;;12.70;99.90;;;;;;5072983;28;20099;-83
2022/05/25 05:35:13;;;;;;;7.35;4.30;;;12.80;99.90;;;;;;5071634;28;20107;-83
2022/05/25 05:37:45;;;;;;;7.40;4.30;;;12.80;99.90;;;;;;5073576;28;20020;-83
2022/05/25 05:40:12;;;;;;;7.10;4.72;;;12.90;99.90;;;;;;5074883;28;20039;-82
2022/05/25 05:42:39;;;;;;;9.55;5.22;;;12.90;99.90;;;;;;5074862;28;20047;-82
2022/05/25 05:45:20;;;;;;;6.93;4.13;;;13.00;99.90;;;;;;5076511;28;20496;-83
2022/05/25 05:48:16;;;;;;;8.05;5.03;;;13.10;99.90;;;;;;5075002;28;20081;-83
2022/05/25 05:50:43;;;;;;;7.00;4.82;;;13.10;99.90;;;;;;5076455;28;20032;-82
2022/05/25 05:53:13;;;;;;;6.68;5.18;;;13.20;99.90;;;;;;5076789;28;20029;-84
2022/05/25 05:55:41;;;;;;;9.15;5.63;;;13.20;99.90;;;;;;5076138;28;20017;-83
2022/05/25 05:58:07;;;;;;;8.80;5.55;;;13.20;99.90;;;;;;5076406;28;20024;-83
2022/05/25 06:00:32;;;;;;;10.55;5.95;;;13.30;99.90;;;;;;5076591;28;20109;-82
2022/05/25 06:02:59;;;;;;;8.65;5.93;;;13.30;99.90;;;;;;5078142;28;20025;-83
2022/05/25 06:05:25;;;;;;;7.75;5.75;;;13.30;99.90;;;;;;5077233;28;20112;-82
2022/05/25 06:07:51;;;;;;;11.00;6.45;;;13.40;99.90;;;;;;5078700;28;20048;-82
2022/05/25 06:10:17;;;;;;;7.93;6.20;;;13.50;99.90;;;;;;5081336;28;20103;-82
2022/05/25 06:12:43;;;;;;;8.25;6.30;;;13.60;99.90;;;;;;5085367;28;20037;-83
2022/05/25 06:20:37;;;;;;;8.65;5.75;;;13.70;99.90;;;;;;5080017;28;20081;-83
2022/05/25 06:23:05;;;;;;;9.75;6.88;;;13.70;99.90;;;;;;5076945;28;20095;-82
2022/05/25 06:25:31;;;;;;;7.45;6.28;;;13.80;99.90;;;;;;5076254;28;20024;-82
2022/05/25 06:27:59;;;;;;;8.77;7.03;;;13.80;99.90;;;;;;5077841;28;20410;-83
2022/05/25 06:30:25;;;;;;;8.65;7.40;;;13.90;99.90;;;;;;5077412;28;20055;-82
2022/05/25 06:32:51;;;;;;;9.00;6.75;;;13.90;99.90;;;;;;5077284;28;20024;-83
2022/05/25 06:35:17;;;;;;;10.43;6.15;;;13.90;99.90;;;;;;5077868;28;20497;-83
2022/05/25 06:37:43;;;;;;;9.02;5.78;;;14.00;99.90;;;;;;5075803;28;20021;-83
2022/05/25 06:40:12;;;;;;;7.10;5.10;;;14.10;99.90;;;;;;5076665;28;20046;-83
2022/05/25 06:42:44;;;;;;;11.55;6.07;;;14.10;99.90;;;;;;5079372;28;20029;-82
2022/05/25 06:45:10;;;;;;;9.98;6.45;;;14.20;99.90;;;;;;5074478;28;20024;-83
2022/05/25 06:47:38;;;;;;;6.15;5.00;;;14.30;99.90;;;;;;5074136;28;20020;-81
2022/05/25 06:50:06;;;;;;;7.65;4.95;;;14.30;99.90;;;;;;5073701;28;20047;-83
2022/05/25 06:52:32;;;;;;;9.27;5.85;;;14.40;99.90;;;;;;5074765;28;20032;-82
2022/05/25 06:55:01;;;;;;;9.68;5.43;;;14.50;99.90;;;;;;5074633;28;20135;-82
2022/05/25 06:57:27;;;;;;;12.93;5.95;;;14.50;99.90;;;;;;5072983;28;20017;-82
2022/05/25 06:59:53;;;;;;;11.75;6.75;;;14.50;99.90;;;;;;5073057;28;20098;-82
2022/05/25 07:02:19;;;;;;;8.05;6.07;;;14.70;99.90;;;;;;5073333;28;20533;-82
2022/05/25 07:04:45;;;;;;;7.68;6.10;;;14.70;99.90;;;;;;5072852;28;20028;-82
2022/05/25 07:07:10;;;;;;;9.38;5.03;;;14.80;99.90;;;;;;5073804;28;20028;-82
2022/05/25 07:09:39;;;;;;;10.38;6.57;;;14.90;99.90;;;;;;5073657;28;20064;-81
2022/05/25 07:12:05;;;;;;;9.85;6.57;;;15.00;99.90;;;;;;5073789;28;20274;-82
2022/05/25 07:14:31;;;;;;;10.10;6.32;;;15.00;99.90;;;;;;5074033;28;20024;-82
2022/05/25 07:17:02;;;;;;;9.18;6.32;;;15.10;99.90;;;;;;5073840;28;20016;-82
2022/05/25 07:19:33;;;;;;;9.40;6.60;;;15.20;99.90;;;;;;5072371;28;20466;-82
2022/05/25 07:21:59;;;;;;;9.02;6.20;;;15.20;99.90;;;;;;5073753;28;20096;-82
2022/05/25 07:24:25;;;;;;;10.60;6.45;;;15.40;99.90;;;;;;5072367;28;20055;-81
2022/05/25 07:26:51;;;;;;;11.80;6.70;;;15.40;99.90;;;;;;5072668;28;20382;-82
2022/05/25 07:29:17;;;;;;;9.32;6.20;;;15.60;99.90;;;;;;5072785;28;20021;-82
2022/05/25 07:31:52;;;;;;;10.50;6.75;;;15.80;99.90;;;;;;5072995;28;20496;-82
2022/05/25 07:34:21;;;;;;;8.63;6.53;;;16.10;99.90;;;;;;5073493;28;20550;-82
2022/05/25 07:36:51;;;;;;;8.80;5.93;;;16.30;99.90;;;;;;5073171;28;20028;-82
2022/05/25 07:39:19;;;;;;;9.77;6.50;;;16.50;99.90;;;;;;5073211;28;20019;-82
2022/05/25 07:41:51;;;;;;;8.98;7.03;;;16.70;99.90;;;;;;5071335;28;20024;-82
2022/05/25 07:44:26;;;;;;;7.85;5.68;;;16.70;99.90;;;;;;5071649;28;20023;-82
2022/05/25 07:46:52;;;;;;;8.73;5.13;;;16.70;99.90;;;;;;5072907;28;20485;-83
2022/05/25 07:49:17;;;;;;;8.73;6.07;;;16.90;99.90;;;;;;5073318;28;20074;-83
2022/05/25 07:51:43;;;;;;;10.00;6.50;;;17.00;99.90;;;;;;5072383;28;20231;-83
2022/05/25 07:54:09;;;;;;;10.57;6.30;;;16.90;99.90;;;;;;5071498;28;20450;-82
2022/05/25 07:56:36;;;;;;;8.05;6.25;;;17.00;99.90;;;;;;5072863;28;20478;-83
2022/05/25 07:59:06;;;;;;;10.50;5.97;;;17.10;99.90;;;;;;5072847;28;20344;-83
2022/05/25 08:07:10;;;;;;;8.95;5.15;;;18.10;99.00;;;;;;5073194;28;20101;-83
2022/05/25 08:09:35;;;;;;;8.55;6.10;;;18.30;98.60;;;;;;5071131;28;20024;-83
2022/05/25 08:12:03;;;;;;;11.05;5.28;;;18.10;97.30;;;;;;5072254;28;20048;-83
2022/05/25 08:14:30;;;;;;;7.20;4.10;;;17.90;98.00;;;;;;5071179;28;20029;-83
2022/05/25 08:16:55;;;;;;;6.20;3.50;;;18.40;97.20;;;;;;5072700;28;20024;-83
2022/05/25 08:19:21;;;;;;;9.27;5.03;;;19.40;94.30;;;;;;5071492;28;20024;-83
2022/05/25 08:21:48;;;;;;;4.05;3.65;;;20.60;91.90;;;;;;5071723;28;20043;-83
2022/05/25 08:24:14;;;;;;;7.78;3.47;;;21.20;91.00;;;;;;5071822;28;20029;-83
2022/05/25 08:26:41;;;;;;;3.45;3.15;;;21.70;88.50;;;;;;5071181;28;20028;-83
2022/05/25 08:29:06;;;;;;;5.32;3.22;;;21.00;85.30;;;;;;5071531;28;20077;-83
2022/05/25 08:31:32;;;;;;;6.82;3.78;;;20.90;86.10;;;;;;5072047;28;20028;-83
2022/05/25 08:33:57;;;;;;;4.57;4.18;;;20.90;83.60;;;;;;5072899;28;20125;-82
2022/05/25 08:36:23;;;;;;;3.33;2.90;;;21.70;82.40;;;;;;5072545;28;20049;-83
2022/05/25 08:38:49;;;;;;;3.63;2.65;;;22.70;81.70;;;;;;5071045;28;20506;-83
2022/05/25 08:41:18;;;;;;;5.00;2.80;;;23.60;76.50;;;;;;5071673;28;20028;-83
2022/05/25 08:43:47;;;;;;;2.60;2.37;;;22.60;72.30;;;;;;5071043;28;20508;-83
2022/05/25 08:46:19;;;;;;;6.43;3.67;;;21.80;75.90;;;;;;5072389;28;20455;-82
2022/05/25 08:48:45;;;;;;;3.63;2.80;;;21.70;76.50;;;;;;5072844;28;20028;-82
2022/05/25 08:51:13;;;;;;;4.35;3.15;;;21.40;77.30;;;;;;5072137;28;20082;-83
2022/05/25 08:53:40;;;;;;;6.10;3.03;;;20.60;79.00;;;;;;5072271;28;20029;-83
2022/05/25 08:56:17;;;;;;;4.10;2.08;;;20.10;79.30;;;;;;5070639;28;20025;-83
2022/05/25 08:58:51;;;;;;;9.60;2.15;;;21.30;79.70;;;;;;5070783;28;20123;-83
2022/05/25 09:01:27;;;;;;;3.88;2.20;;;21.60;74.60;;;;;;5071677;28;20042;-84
2022/05/25 09:03:59;;;;;;;3.95;2.20;;;22.40;72.90;;;;;;5070847;28;20115;-83
2022/05/25 09:06:59;;;;;;;6.78;3.25;;;24.40;67.80;;;;;;5072361;28;20097;-83
2022/05/25 09:09:34;;;;;;;2.35;2.13;;;24.70;66.30;;;;;;5072213;28;20020;-84
2022/05/25 09:12:11;;;;;;;6.80;2.10;;;26.60;60.70;;;;;;5071987;28;20059;-83
2022/05/25 09:14:43;;;;;;;7.05;1.80;;;26.80;60.50;;;;;;5076197;28;20108;-84
2022/05/25 09:17:19;;;;;;;3.63;2.00;;;27.20;59.70;;;;;;5076477;28;20071;-83
2022/05/25 09:19:47;;;;;;;4.40;2.13;;;26.90;55.60;;;;;;5076405;28;20048;-83
2022/05/25 09:22:19;;;;;;;3.67;1.50;;;27.80;55.90;;;;;;5076018;28;20027;-83
2022/05/25 09:24:45;;;;;;;2.38;1.45;;;28.60;54.00;;;;;;5074602;28;20439;-83
2022/05/25 09:27:14;;;;;;;3.70;1.50;;;28.70;55.00;;;;;;5076656;28;20054;-84
2022/05/25 09:29:41;;;;;;;2.20;1.67;;;29.00;54.70;;;;;;5075173;28;20086;-83
2022/05/25 09:32:25;;;;;;;2.08;1.83;;;29.50;51.50;;;;;;5074778;28;20021;-84
2022/05/25 09:34:53;;;;;;;2.30;1.70;;;28.80;52.30;;;;;;5076049;28;20024;-83
2022/05/25 09:37:37;;;;;;;4.57;2.33;;;27.70;51.90;;;;;;5075993;28;20027;-84
2022/05/25 09:40:19;;;;;;;3.17;1.60;;;25.50;56.40;;;;;;5075017;28;20100;-84
2022/05/25 09:42:56;;;;;;;2.30;1.75;;;25.60;58.60;;;;;;5074379;28;20477;-83
2022/05/25 09:45:22;;;;;;;2.65;1.70;;;25.10;57.70;;;;;;5075798;28;20035;-83
2022/05/25 09:47:49;;;;;;;3.83;2.42;;;24.00;60.40;;;;;;5075921;28;20094;-83
2022/05/25 09:50:51;;;;;;;3.65;2.15;;;23.80;60.20;;;;;;5075340;28;20030;-83
2022/05/25 09:53:20;;;;;;;3.83;1.92;;;24.30;58.30;;;;;;5059038;28;20573;-83
2022/05/25 09:56:09;;;;;;;4.53;1.92;;;24.90;58.50;;;;;;5074065;28;20028;-83
2022/05/25 09:58:43;;;;;;;5.20;1.65;;;24.90;57.50;;;;;;5075249;28;20031;-83
2022/05/25 10:01:19;;;;;;;2.17;1.38;;;25.30;57.30;;;;;;5074555;28;20032;-84
2022/05/25 10:03:45;;;;;;;2.28;1.25;;;26.00;55.20;;;;;;5074135;28;20151;-83
2022/05/25 10:06:30;;;;;;;1.83;1.30;;;26.60;54.30;;;;;;5075392;28;20044;-84
2022/05/25 10:09:18;;;;;;;2.33;1.40;;;26.10;53.60;;;;;;5076080;28;20091;-84
2022/05/25 10:11:48;;;;;;;1.92;1.10;;;25.30;55.50;;;;;;5075061;28;20278;-86
2022/05/25 10:14:42;;;;;;;2.93;1.50;;;24.40;57.00;;;;;;5074574;28;20036;-87
2022/05/25 10:17:14;;;;;;;3.15;1.23;;;23.60;57.20;;;;;;5072785;28;20267;-84
2022/05/25 10:19:51;;;;;;;4.32;1.30;;;24.10;56.90;;;;;;5077161;28;20074;-84
2022/05/25 10:22:36;;;;;;;2.97;0.90;;;23.30;56.00;;;;;;5075935;28;20645;-85
2022/05/25 10:25:12;;;;;;;3.13;1.30;;;23.60;57.80;;;;;;5072850;28;20370;-84
2022/05/25 10:27:41;;;;;;;2.92;1.17;;;23.10;56.60;;;;;;5077140;28;20032;-84
2022/05/25 10:36:48;;;;;;;2.08;0.90;;;22.90;59.10;;;;;;5078610;28;20031;-86
2022/05/25 10:39:23;;;;;;;1.83;0.90;;;24.80;55.90;;;;;;5077198;28;20025;-85
2022/05/25 10:42:05;;;;;;;5.28;1.45;;;26.60;54.10;;;;;;5077516;28;20024;-83
2022/05/25 10:47:49;;;;;;;2.88;1.05;;;27.40;53.50;;;;;;5074900;28;20116;-83
2022/05/25 10:50:26;;;;;;;1.60;0.90;;;27.40;50.60;;;;;;5074174;28;20063;-84
2022/05/25 10:53:22;;;;;;;2.50;1.02;;;28.30;50.60;;;;;;5074277;28;20546;-84
2022/05/25 10:56:10;;;;;;;3.60;1.20;;;29.10;49.60;;;;;;5074503;28;20027;-83
2022/05/25 10:58:39;;;;;;;4.28;1.45;;;27.90;48.50;;;;;;5074714;28;20082;-84
2022/05/25 11:01:04;;;;;;;1.65;1.20;;;26.40;49.80;;;;;;5073835;28;20492;-84
2022/05/25 11:03:59;;;;;;;2.35;1.25;;;25.30;52.80;;;;;;5074356;28;20032;-83
2022/05/25 11:06:53;;;;;;;2.25;1.42;;;23.90;54.90;;;;;;5073704;28;20027;-83
2022/05/25 11:09:38;;;;;;;3.83;1.13;;;23.10;57.60;;;;;;5073933;28;20055;-83
2022/05/25 11:12:30;;;;;;;2.97;1.40;;;24.10;57.40;;;;;;5073893;28;20040;-83
2022/05/25 11:15:26;;;;;;;3.33;1.65;;;25.30;55.80;;;;;;5074233;28;20465;-83
2022/05/25 11:18:29;;;;;;;1.30;1.02;;;26.50;53.10;;;;;;5072611;28;20132;-84
2022/05/25 11:21:20;;;;;;;1.60;1.27;;;27.50;52.20;;;;;;5073049;28;20032;-83
2022/05/25 11:24:07;;;;;;;3.45;1.35;;;27.80;49.80;;;;;;5072552;28;20021;-84
2022/05/25 11:27:00;;;;;;;2.78;1.35;;;28.10;48.80;;;;;;5072934;28;20020;-84
2022/05/25 11:29:52;;;;;;;3.60;1.27;;;28.00;47.30;;;;;;5072326;28;20048;-83
2022/05/25 11:32:29;;;;;;;4.45;1.27;;;27.40;47.20;;;;;;5074019;28;20029;-82
2022/05/25 11:35:29;;;;;;;2.42;0.90;;;27.40;49.60;;;;;;5073786;28;20028;-83
2022/05/25 11:38:32;;;;;;;2.03;0.65;;;27.20;48.60;;;;;;5073270;28;20293;-83
2022/05/25 11:41:20;;;;;;;3.22;1.13;;;27.50;49.40;;;;;;5072844;28;20017;-83
2022/05/25 11:44:25;;;;;;;2.03;1.30;;;28.70;46.50;;;;;;5072422;28;20051;-83
2022/05/25 11:46:51;;;;;;;1.33;0.90;;;28.20;46.50;;;;;;5073362;28;20020;-82
2022/05/25 11:49:35;;;;;;;3.78;1.00;;;28.00;46.40;;;;;;5074253;28;20143;-83
2022/05/25 11:52:25;;;;;;;2.85;0.88;;;27.40;48.50;;;;;;5073681;28;20036;-82
2022/05/25 11:55:09;;;;;;;;;;;27.20;47.00;;;;;;5072356;28;20179;-83
2022/05/25 11:57:45;;;;;;;2.35;1.33;;;27.20;47.70;;;;;;5072540;28;20564;-83
2022/05/25 12:00:44;;;;;;;1.00;0.70;;;27.10;48.60;;;;;;5073225;28;20048;-83
2022/05/25 12:03:37;;;;;;;1.83;1.45;;;26.60;47.90;;;;;;5071760;28;20547;-83
2022/05/25 12:06:33;;;;;;;2.60;0.80;;;26.60;47.90;;;;;;5071670;28;20051;-83
2022/05/25 12:09:12;;;;;;;4.45;1.40;;;27.00;47.30;;;;;;5072959;28;20056;-83
2022/05/25 12:11:48;;;;;;;4.57;1.50;;;26.30;47.50;;;;;;5072238;28;20029;-82
2022/05/25 12:14:42;;;;;;;5.70;1.52;;;25.40;48.70;;;;;;5073118;28;20162;-83
2022/05/25 12:17:14;;;;;;;7.05;1.45;;;25.60;49.90;;;;;;5071754;28;20049;-82
2022/05/25 12:19:41;;;;;;;3.45;1.20;;;25.80;50.80;;;;;;5070793;28;20023;-83
2022/05/25 12:22:11;;;;;;;2.45;1.30;;;25.50;49.70;;;;;;5072979;28;20108;-83
2022/05/25 12:24:57;;;;;;;3.28;1.10;;;25.20;46.80;;;;;;5072751;28;20027;-83
2022/05/25 12:27:32;;;;;;;2.88;1.58;;;24.50;48.80;;;;;;5071274;28;20039;-83
2022/05/25 12:30:06;;;;;;;1.63;0.90;;;24.80;51.60;;;;;;5070848;28;20338;-83
2022/05/25 12:32:38;;;;;;;5.03;1.33;;;25.40;50.80;;;;;;5072716;28;20438;-83
2022/05/25 12:35:05;;;;;;;1.58;0.90;;;25.20;48.90;;;;;;5072056;28;20023;-83
2022/05/25 12:37:39;;;;;;;2.42;0.80;;;25.00;49.70;;;;;;5072558;28;20103;-84
2022/05/25 12:40:13;;;;;;;2.55;1.00;;;25.40;49.20;;;;;;5072124;28;20107;-83
2022/05/25 12:42:41;;;;;;;1.67;0.85;;;24.60;48.30;;;;;;5071083;28;20032;-83
2022/05/25 12:48:33;;;;;;;1.00;0.80;;;24.70;49.30;;;;;;5071759;28;20039;-83
2022/05/25 12:51:07;;;;;;;2.25;0.85;;;24.40;47.50;;;;;;5070705;28;20521;-83
2022/05/25 12:53:49;;;;;;;1.38;0.75;;;24.30;48.00;;;;;;5071056;28;20478;-83
2022/05/25 12:56:18;;;;;;;1.02;0.70;;;24.50;49.70;;;;;;5071264;28;20017;-83
2022/05/25 12:58:46;;;;;;;0.70;0.60;;;24.50;48.80;;;;;;5072607;28;20025;-83
2022/05/25 13:01:27;;;;;;;1.55;0.60;;;24.90;48.70;;;;;;5070258;28;20017;-83
2022/05/25 13:03:56;;;;;;;0.68;0.68;;;24.50;48.20;;;;;;5072380;28;20025;-83
2022/05/25 13:06:27;;;;;;;1.23;0.80;;;24.70;49.10;;;;;;5072531;28;20492;-83
2022/05/25 13:08:53;;;;;;;1.05;0.80;;;25.00;48.10;;;;;;5072440;28;20473;-83
2022/05/25 13:11:36;;;;;;;1.63;0.80;;;25.50;47.80;;;;;;5073507;28;20103;-83
2022/05/25 13:14:16;;;;;;;1.40;0.80;;;25.50;47.30;;;;;;5072289;28;20029;-83
2022/05/25 13:16:45;;;;;;;;;;;25.10;49.00;;;;;;5074416;28;20021;-82
2022/05/25 13:19:32;;;;;;;3.13;1.00;;;24.90;48.50;;;;;;5073027;28;19905;-83
2022/05/25 13:22:04;;;;;;;4.60;0.90;;;24.90;48.40;;;;;;5074492;28;20028;-84
2022/05/25 13:24:38;;;;;;;1.10;0.90;;;24.50;49.40;;;;;;5072691;28;20021;-82
2022/05/25 13:27:15;;;;;;;1.27;0.82;;;24.20;49.90;;;;;;5073241;28;20114;-82
2022/05/25 13:29:44;;;;;;;4.70;0.95;;;24.10;51.10;;;;;;5073074;28;20028;-83
2022/05/25 13:32:21;;;;;;;1.98;1.00;;;24.20;50.80;;;;;;5073408;28;20024;-83
2022/05/25 13:34:47;;;;;;;1.55;0.65;;;24.00;51.70;;;;;;5073280;28;20523;-83
2022/05/25 13:37:14;;;;;;;4.32;0.95;;;24.10;49.90;;;;;;5073032;28;20021;-83
2022/05/25 13:39:41;;;;;;;2.28;0.93;;;23.70;50.10;;;;;;5070679;28;20021;-83
2022/05/25 13:42:14;;;;;;;3.30;0.73;;;23.70;50.10;;;;;;5073182;28;20031;-83
2022/05/25 13:44:48;;;;;;;3.65;0.85;;;23.60;51.40;;;;;;5075304;28;20021;-83